createdAt,value
2022-09-30T00:01:45.499Z,19.32
2022-09-30T00:04:20.979Z,18.94
2022-09-30T00:06:48.461Z,18.87
2022-09-30T00:09:16.685Z,18.33
2022-09-30T00:11:44.322Z,18.20
2022-09-30T00:14:18.411Z,18.28
2022-09-30T00:16:46.208Z,18.59
2022-09-30T00:19:13.576Z,18.85
2022-09-30T00:21:40.941Z,18.82
2022-09-30T00:24:08.279Z,18.68
2022-09-30T00:26:35.583Z,18.07
2022-09-30T00:29:03.615Z,17.98
2022-09-30T00:31:33.617Z,18.14
2022-09-30T00:34:11.600Z,18.13
2022-09-30T00:36:48.037Z,17.90
2022-09-30T00:39:18.991Z,17.93
2022-09-30T00:41:48.373Z,18.00
2022-09-30T00:44:46.110Z,17.86
2022-09-30T00:47:16.147Z,17.71
2022-09-30T00:49:43.106Z,17.72
2022-09-30T00:52:10.055Z,18.05
2022-09-30T00:54:37.000Z,17.91
2022-09-30T00:57:04.850Z,17.81
2022-09-30T00:59:44.848Z,17.79
2022-09-30T01:02:13.157Z,18.00
2022-09-30T01:04:42.152Z,18.11
2022-09-30T01:07:10.350Z,17.93
2022-09-30T01:09:40.643Z,17.44
2022-09-30T01:12:14.452Z,16.97
2022-09-30T01:14:42.744Z,16.86
2022-09-30T01:17:13.278Z,17.31
2022-09-30T01:19:52.365Z,17.78
2022-09-30T01:22:27.751Z,17.94
2022-09-30T01:25:23.833Z,18.21
2022-09-30T01:27:50.618Z,18.33
2022-09-30T01:31:02.551Z,18.20
2022-09-30T01:33:49.673Z,18.26
2022-09-30T01:36:59.525Z,18.53
2022-09-30T01:39:29.094Z,18.63
2022-09-30T01:42:18.636Z,18.34
2022-09-30T01:45:11.098Z,18.26
2022-09-30T01:47:38.041Z,18.20
2022-09-30T01:50:39.807Z,18.22
2022-09-30T01:53:16.911Z,18.43
2022-09-30T01:56:00.254Z,18.30
2022-09-30T01:59:08.525Z,18.05
2022-09-30T02:02:02.232Z,17.81
2022-09-30T02:04:41.276Z,17.56
2022-09-30T02:07:14.792Z,17.60
2022-09-30T02:09:49.690Z,17.59
2022-09-30T02:12:21.466Z,17.59
2022-09-30T02:14:56.541Z,17.18
2022-09-30T02:17:25.828Z,17.31
2022-09-30T02:20:10.637Z,17.62
2022-09-30T02:22:45.871Z,17.48
2022-09-30T02:25:27.382Z,17.40
2022-09-30T02:27:58.647Z,17.41
2022-09-30T02:30:25.834Z,17.26
2022-09-30T02:33:03.576Z,17.15
2022-09-30T02:35:30.455Z,17.34
2022-09-30T02:38:05.766Z,17.32
2022-09-30T02:40:55.515Z,17.11
2022-09-30T02:43:22.825Z,17.08
2022-09-30T02:46:03.000Z,17.12
2022-09-30T02:48:40.279Z,17.08
2022-09-30T02:51:15.449Z,17.18
2022-09-30T02:53:49.626Z,17.16
2022-09-30T02:56:34.711Z,17.25
2022-09-30T02:59:01.769Z,17.26
2022-09-30T03:01:30.332Z,17.44
2022-09-30T03:04:00.949Z,17.54
2022-09-30T03:06:28.122Z,17.79
2022-09-30T03:08:55.204Z,17.95
2022-09-30T03:11:25.208Z,17.90
2022-09-30T03:14:04.398Z,17.87
2022-09-30T03:17:04.287Z,18.05
2022-09-30T03:19:47.545Z,18.19
2022-09-30T03:22:33.651Z,17.97
2022-09-30T03:25:15.089Z,17.78
2022-09-30T03:28:05.028Z,17.54
2022-09-30T03:30:38.276Z,17.37
2022-09-30T03:33:09.904Z,17.28
2022-09-30T03:35:58.393Z,17.34
2022-09-30T03:38:40.332Z,17.29
2022-09-30T03:41:16.888Z,17.27
2022-09-30T03:43:47.517Z,17.63
2022-09-30T03:46:32.859Z,17.49
2022-09-30T03:49:04.359Z,17.50
2022-09-30T03:51:32.297Z,17.33
2022-09-30T03:53:59.629Z,17.29
2022-09-30T03:56:31.899Z,17.26
2022-09-30T03:58:59.071Z,17.05
2022-09-30T04:01:25.986Z,16.68
2022-09-30T04:03:53.946Z,16.43
2022-09-30T04:06:23.486Z,16.44
2022-09-30T04:08:54.005Z,16.53
2022-09-30T04:11:20.970Z,16.57
2022-09-30T04:13:47.936Z,16.51
2022-09-30T04:16:14.882Z,16.58
2022-09-30T04:18:42.438Z,16.76
2022-09-30T04:21:11.892Z,16.86
2022-09-30T04:23:41.087Z,16.93
2022-09-30T04:26:11.204Z,17.12
2022-09-30T04:28:38.185Z,17.62
2022-09-30T04:31:06.440Z,18.57
2022-09-30T04:33:33.777Z,19.04
2022-09-30T04:36:01.392Z,19.69
2022-09-30T04:38:29.259Z,20.19
2022-09-30T04:40:56.892Z,20.79
2022-09-30T04:43:25.103Z,21.66
2022-09-30T04:45:53.230Z,22.27
2022-09-30T04:48:22.696Z,22.89
2022-09-30T04:50:50.123Z,24.27
2022-09-30T04:53:18.491Z,25.87
2022-09-30T04:55:46.274Z,27.74
2022-09-30T04:58:13.954Z,28.91
2022-09-30T05:00:40.911Z,29.29
2022-09-30T05:03:07.825Z,29.25
2022-09-30T05:05:34.807Z,30.72
2022-09-30T05:08:03.207Z,29.17
2022-09-30T05:10:30.484Z,28.65
2022-09-30T05:13:00.818Z,28.07
2022-09-30T05:15:27.790Z,28.31
2022-09-30T05:17:54.901Z,29.98
2022-09-30T05:20:21.993Z,30.00
2022-09-30T05:22:54.843Z,30.52
2022-09-30T05:25:21.923Z,32.53
2022-09-30T05:27:50.082Z,32.94
2022-09-30T05:30:17.118Z,34.21
2022-09-30T05:32:44.258Z,34.85
2022-09-30T05:35:12.241Z,35.53
2022-09-30T05:37:39.214Z,34.93
2022-09-30T05:40:07.877Z,34.51
2022-09-30T05:42:37.051Z,35.06
2022-09-30T05:45:07.443Z,34.62
2022-09-30T05:47:34.723Z,32.62
2022-09-30T05:50:01.624Z,34.11
2022-09-30T05:52:29.722Z,34.68
2022-09-30T05:54:59.171Z,35.38
2022-09-30T05:57:26.093Z,35.78
2022-09-30T05:59:52.977Z,35.62
2022-09-30T06:02:20.065Z,36.35
2022-09-30T06:04:47.180Z,36.60
2022-09-30T06:07:14.134Z,35.74
2022-09-30T06:09:41.074Z,35.14
2022-09-30T06:12:08.364Z,35.81
2022-09-30T06:14:35.473Z,34.31
2022-09-30T06:17:02.428Z,33.84
2022-09-30T06:19:30.429Z,33.32
2022-09-30T06:21:58.549Z,33.91
2022-09-30T06:24:26.223Z,33.83
2022-09-30T06:26:53.189Z,33.60
2022-09-30T06:29:20.224Z,34.00
2022-09-30T06:31:47.263Z,34.07
2022-09-30T06:34:14.293Z,34.05
2022-09-30T06:36:41.141Z,34.49
2022-09-30T06:39:11.543Z,35.24
2022-09-30T06:41:43.624Z,35.43
2022-09-30T06:44:13.186Z,35.92
2022-09-30T06:46:51.711Z,35.80
2022-09-30T06:49:20.895Z,35.73
2022-09-30T06:51:47.818Z,36.81
2022-09-30T06:54:14.837Z,35.74
2022-09-30T06:56:42.016Z,36.59
2022-09-30T06:59:08.989Z,35.73
2022-09-30T07:01:36.302Z,35.15
2022-09-30T07:04:08.273Z,35.72
2022-09-30T07:06:35.555Z,34.31
2022-09-30T07:09:02.555Z,33.44
2022-09-30T07:11:29.457Z,33.81
2022-09-30T07:13:57.611Z,33.65
2022-09-30T07:16:25.887Z,33.96
2022-09-30T07:18:54.129Z,34.40
2022-09-30T07:21:21.006Z,34.90
2022-09-30T07:23:48.289Z,35.17
2022-09-30T07:26:23.720Z,35.37
2022-09-30T07:28:51.795Z,35.72
2022-09-30T07:31:34.186Z,36.41
2022-09-30T07:34:03.795Z,37.25
2022-09-30T07:36:33.594Z,36.13
2022-09-30T07:39:06.010Z,36.78
2022-09-30T07:41:36.067Z,37.68
2022-09-30T07:44:06.455Z,37.19
2022-09-30T07:46:35.591Z,36.75
2022-09-30T07:49:04.651Z,36.58
2022-09-30T07:51:35.487Z,35.08
2022-09-30T07:54:07.340Z,34.38
2022-09-30T07:56:57.851Z,34.51
2022-09-30T07:59:22.655Z,35.02
2022-09-30T08:01:50.960Z,34.83
2022-09-30T08:04:19.822Z,35.08
2022-09-30T08:06:49.762Z,34.69
2022-09-30T08:09:19.577Z,34.57
2022-09-30T08:11:46.970Z,33.44
2022-09-30T08:14:19.390Z,34.41
2022-09-30T08:16:46.704Z,35.19
2022-09-30T08:19:16.783Z,34.25
2022-09-30T08:21:44.718Z,33.43
2022-09-30T08:24:12.415Z,33.93
2022-09-30T08:26:39.930Z,35.02
2022-09-30T08:29:06.966Z,35.13
2022-09-30T08:31:34.067Z,33.35
2022-09-30T08:34:03.170Z,32.69
2022-09-30T08:36:30.932Z,33.12
2022-09-30T08:38:58.157Z,32.81
2022-09-30T08:41:54.089Z,31.97
2022-09-30T08:44:41.656Z,31.49
2022-09-30T08:47:08.697Z,32.19
2022-09-30T08:49:57.003Z,32.57
2022-09-30T08:52:48.256Z,32.70
2022-09-30T08:55:23.137Z,33.25
2022-09-30T08:57:52.273Z,34.78
2022-09-30T09:00:20.282Z,34.20
2022-09-30T09:02:57.426Z,34.19
2022-09-30T09:05:33.024Z,33.30
2022-09-30T09:08:37.390Z,33.17
2022-09-30T09:11:21.245Z,33.18
2022-09-30T09:14:02.872Z,32.40
2022-09-30T09:17:03.311Z,33.35
2022-09-30T09:19:38.705Z,32.95
2022-09-30T09:22:07.719Z,33.47
2022-09-30T09:24:34.547Z,34.32
2022-09-30T09:27:26.867Z,35.20
2022-09-30T09:29:56.657Z,34.15
2022-09-30T09:32:27.779Z,33.87
2022-09-30T09:35:12.838Z,35.16
2022-09-30T09:38:17.175Z,34.96
2022-09-30T09:41:17.660Z,33.43
2022-09-30T09:43:56.403Z,33.05
2022-09-30T09:46:38.247Z,33.18
2022-09-30T09:49:16.156Z,33.32
2022-09-30T09:52:15.290Z,33.73
2022-09-30T09:54:42.229Z,33.59
2022-09-30T09:57:24.967Z,34.00
2022-09-30T10:00:23.130Z,34.76
2022-09-30T10:03:28.059Z,34.99
2022-09-30T10:06:05.635Z,34.79
2022-09-30T10:08:35.753Z,34.79
2022-09-30T10:11:05.763Z,34.84
2022-09-30T10:13:38.596Z,35.23
2022-09-30T10:16:05.993Z,35.43
2022-09-30T10:18:37.518Z,35.84
2022-09-30T10:21:23.140Z,35.68
2022-09-30T10:23:50.808Z,35.08
2022-09-30T10:29:01.504Z,35.74
2022-09-30T10:31:35.709Z,34.91
2022-09-30T10:34:34.725Z,33.17
2022-09-30T10:37:07.602Z,32.93
2022-09-30T10:39:37.792Z,32.16
2022-09-30T10:42:26.248Z,31.51
2022-09-30T10:44:57.923Z,31.27
2022-09-30T10:47:27.560Z,31.49
2022-09-30T10:50:01.173Z,31.68
2022-09-30T10:52:32.526Z,31.83
2022-09-30T10:55:13.255Z,31.81
2022-09-30T10:57:42.754Z,32.05
2022-09-30T11:00:22.827Z,31.79
2022-09-30T11:03:14.957Z,31.72
2022-09-30T11:05:44.400Z,31.18
2022-09-30T11:08:50.228Z,32.11
2022-09-30T11:11:29.305Z,31.91
2022-09-30T11:14:23.231Z,32.05
2022-09-30T11:17:09.534Z,32.43
2022-09-30T11:19:57.299Z,31.75
2022-09-30T11:22:34.357Z,31.19
2022-09-30T11:25:01.498Z,31.33
2022-09-30T11:27:43.157Z,31.73
2022-09-30T11:30:20.748Z,30.73
2022-09-30T11:33:19.677Z,31.08
2022-09-30T11:35:56.622Z,30.60
2022-09-30T11:38:43.804Z,30.56
2022-09-30T11:41:31.053Z,30.48
2022-09-30T11:44:30.776Z,29.38
2022-09-30T11:47:03.417Z,27.75
2022-09-30T11:49:41.890Z,27.24
2022-09-30T11:52:36.649Z,26.96
2022-09-30T11:55:30.555Z,27.20
2022-09-30T11:58:28.518Z,28.04
2022-09-30T12:01:09.807Z,30.05
2022-09-30T12:03:42.730Z,29.85
2022-09-30T12:06:27.798Z,29.71
2022-09-30T12:09:00.061Z,31.30
2022-09-30T12:11:40.356Z,31.49
2022-09-30T12:14:20.808Z,31.26
2022-09-30T12:16:49.119Z,30.02
2022-09-30T12:19:24.590Z,30.01
2022-09-30T12:22:02.141Z,30.94
2022-09-30T12:24:40.877Z,31.15
2022-09-30T12:27:15.203Z,32.07
2022-09-30T12:30:11.764Z,32.89
2022-09-30T12:33:11.055Z,33.08
2022-09-30T12:35:52.995Z,32.86
2022-09-30T12:38:57.112Z,32.66
2022-09-30T12:41:45.644Z,33.70
2022-09-30T12:45:02.022Z,34.43
2022-09-30T12:47:53.162Z,34.26
2022-09-30T12:50:26.033Z,32.30
2022-09-30T12:52:53.044Z,31.81
2022-09-30T12:55:31.712Z,33.04
2022-09-30T12:58:01.828Z,33.27
2022-09-30T13:00:35.021Z,33.91
2022-09-30T13:03:17.831Z,32.56
2022-09-30T13:05:52.318Z,31.40
2022-09-30T13:08:24.272Z,31.45
2022-09-30T13:11:00.553Z,30.84
2022-09-30T13:13:34.072Z,30.71
2022-09-30T13:16:06.965Z,29.98
2022-09-30T13:18:34.030Z,29.51
2022-09-30T13:21:08.579Z,29.47
2022-09-30T13:23:45.727Z,28.66
2022-09-30T13:26:28.211Z,28.33
2022-09-30T13:29:15.841Z,28.65
2022-09-30T13:31:45.745Z,28.28
2022-09-30T13:34:21.878Z,28.71
2022-09-30T13:36:51.571Z,27.90
2022-09-30T13:39:20.762Z,27.48
2022-09-30T13:42:16.917Z,27.21
2022-09-30T13:45:02.661Z,27.11
2022-09-30T13:47:50.726Z,27.36
2022-09-30T13:50:24.051Z,26.47
2022-09-30T13:52:55.716Z,26.03
2022-09-30T13:55:36.203Z,26.51
2022-09-30T13:58:27.766Z,26.45
2022-09-30T14:01:10.656Z,26.80
2022-09-30T14:03:52.710Z,27.10
2022-09-30T14:06:51.671Z,26.46
2022-09-30T14:09:24.666Z,27.00
2022-09-30T14:12:00.678Z,26.81
2022-09-30T14:14:46.026Z,27.13
2022-09-30T14:17:32.558Z,27.12
2022-09-30T14:21:03.847Z,27.13
2022-09-30T14:23:30.766Z,27.14
2022-09-30T14:26:13.673Z,26.89
2022-09-30T14:28:52.964Z,26.66
2022-09-30T14:31:20.194Z,26.57
2022-09-30T14:33:50.119Z,26.98
2022-09-30T14:39:11.106Z,26.58
2022-09-30T14:41:41.237Z,26.48
2022-09-30T14:44:17.732Z,26.71
2022-09-30T14:46:47.254Z,26.86
2022-09-30T14:49:18.905Z,26.88
2022-09-30T14:51:48.615Z,26.62
2022-09-30T14:54:30.679Z,26.57
2022-09-30T14:57:00.602Z,26.45
2022-09-30T14:59:33.261Z,26.49
2022-09-30T15:02:20.436Z,26.28
2022-09-30T15:04:51.221Z,25.64
2022-09-30T15:07:18.469Z,25.28
2022-09-30T15:09:47.388Z,25.38
2022-09-30T15:12:18.421Z,25.44
2022-09-30T15:14:53.539Z,25.44
2022-09-30T15:17:46.878Z,25.33
2022-09-30T15:20:30.523Z,25.39
2022-09-30T15:23:03.566Z,25.60
2022-09-30T15:25:31.615Z,25.32
2022-09-30T15:27:59.642Z,25.31
2022-09-30T15:30:33.183Z,25.30
2022-09-30T15:33:06.352Z,25.17
2022-09-30T15:35:33.495Z,25.02
2022-09-30T15:38:26.450Z,25.11
2022-09-30T15:41:03.388Z,24.92
2022-09-30T15:43:36.422Z,25.30
2022-09-30T15:46:17.320Z,25.15
2022-09-30T15:48:45.000Z,24.92
2022-09-30T15:51:32.867Z,24.74
2022-09-30T15:54:02.021Z,24.61
2022-09-30T15:56:37.037Z,24.47
2022-09-30T15:59:08.780Z,24.22
2022-09-30T16:01:41.635Z,24.53
2022-09-30T16:04:17.564Z,24.64
2022-09-30T16:07:08.326Z,24.46
2022-09-30T16:09:38.112Z,24.30
2022-09-30T16:12:13.032Z,23.83
2022-09-30T16:14:50.110Z,24.02
2022-09-30T16:17:22.511Z,24.10
2022-09-30T16:19:54.865Z,23.89
2022-09-30T16:22:48.338Z,23.68
2022-09-30T16:25:28.112Z,23.79
2022-09-30T16:28:12.830Z,23.84
2022-09-30T16:30:44.782Z,24.09
2022-09-30T16:33:14.618Z,24.37
2022-09-30T16:35:42.988Z,24.22
2022-09-30T16:38:13.972Z,23.94
2022-09-30T16:40:41.126Z,23.92
2022-09-30T16:43:12.002Z,24.06
2022-09-30T16:45:43.875Z,24.13
2022-09-30T16:48:18.689Z,24.29
2022-09-30T16:51:14.013Z,23.91
2022-09-30T16:53:41.903Z,23.85
2022-09-30T16:56:16.667Z,23.56
2022-09-30T16:58:44.261Z,23.53
2022-09-30T17:01:20.129Z,23.75
2022-09-30T17:03:47.242Z,23.96
2022-09-30T17:06:17.357Z,24.04
2022-09-30T17:08:45.442Z,24.00
2022-09-30T17:11:12.408Z,23.91
2022-09-30T17:13:40.154Z,23.92
2022-09-30T17:16:08.097Z,23.85
2022-09-30T17:18:34.983Z,23.64
2022-09-30T17:21:01.872Z,23.72
2022-09-30T17:23:28.898Z,23.44
2022-09-30T17:25:55.909Z,23.46
2022-09-30T17:28:22.801Z,23.13
2022-09-30T17:30:50.577Z,23.03
2022-09-30T17:33:21.147Z,23.12
2022-09-30T17:36:01.102Z,23.22
2022-09-30T17:38:28.864Z,23.38
2022-09-30T17:41:14.523Z,23.43
2022-09-30T17:43:41.724Z,23.45
2022-09-30T17:46:09.064Z,23.37
2022-09-30T17:48:37.390Z,23.40
2022-09-30T17:51:06.144Z,23.11
2022-09-30T17:53:33.436Z,22.72
2022-09-30T17:56:03.378Z,22.89
2022-09-30T17:58:30.358Z,23.06
2022-09-30T18:01:00.400Z,22.82
2022-09-30T18:03:28.342Z,22.76
2022-09-30T18:05:58.914Z,22.47
2022-09-30T18:08:27.717Z,22.70
2022-09-30T18:10:57.427Z,22.68
2022-09-30T18:13:25.370Z,22.60
2022-09-30T18:15:52.317Z,22.40
2022-09-30T18:18:19.317Z,22.48
2022-09-30T18:20:50.387Z,22.41
2022-09-30T18:23:21.212Z,22.43
2022-09-30T18:25:49.802Z,22.09
2022-09-30T18:28:17.661Z,21.73
2022-09-30T18:30:46.738Z,22.01
2022-09-30T18:33:17.436Z,22.06
2022-09-30T18:35:44.971Z,21.99
2022-09-30T18:38:13.507Z,22.30
2022-09-30T18:40:44.106Z,22.08
2022-09-30T18:43:14.377Z,22.10
2022-09-30T18:45:44.917Z,22.09
2022-09-30T18:48:12.117Z,21.67
2022-09-30T18:50:39.064Z,21.43
2022-09-30T18:53:09.939Z,21.38
2022-09-30T18:55:38.401Z,21.52
2022-09-30T18:58:05.409Z,21.75
2022-09-30T19:00:32.472Z,21.90
2022-09-30T19:02:59.435Z,22.14
2022-09-30T19:05:26.573Z,22.30
2022-09-30T19:07:54.341Z,22.27
2022-09-30T19:10:21.287Z,22.13
2022-09-30T19:12:49.687Z,21.84
2022-09-30T19:15:16.627Z,21.75
2022-09-30T19:17:45.009Z,21.69
2022-09-30T19:20:15.354Z,21.85
2022-09-30T19:22:42.511Z,21.69
2022-09-30T19:25:11.852Z,21.68
2022-09-30T19:27:41.021Z,21.71
2022-09-30T19:30:13.777Z,21.60
2022-09-30T19:32:41.258Z,21.54
2022-09-30T19:35:11.880Z,20.95
2022-09-30T19:37:47.809Z,20.37
2022-09-30T19:40:22.280Z,20.33
2022-09-30T19:42:50.038Z,20.25
2022-09-30T19:45:19.426Z,20.53
2022-09-30T19:47:48.393Z,20.88
2022-09-30T19:50:15.347Z,21.28
2022-09-30T19:52:54.083Z,21.69
2022-09-30T19:55:23.528Z,21.59
2022-09-30T19:57:50.456Z,21.20
2022-09-30T20:00:17.497Z,21.10
2022-09-30T20:02:44.432Z,21.31
2022-09-30T20:05:11.557Z,21.34
2022-09-30T20:07:38.488Z,21.60
2022-09-30T20:10:06.447Z,21.33
2022-09-30T20:12:33.345Z,21.36
2022-09-30T20:15:18.898Z,20.52
2022-09-30T20:17:45.921Z,20.14
2022-09-30T20:20:31.211Z,20.03
2022-09-30T20:23:00.218Z,19.57
2022-09-30T20:25:27.928Z,19.52
2022-09-30T20:27:54.867Z,19.77
2022-09-30T20:30:21.781Z,19.96
2022-09-30T20:32:48.692Z,20.13
2022-09-30T20:35:15.574Z,20.22
2022-09-30T20:37:42.555Z,19.92
2022-09-30T20:40:09.826Z,19.73
2022-09-30T20:42:38.512Z,19.97
2022-09-30T20:45:10.768Z,19.97
2022-09-30T20:47:43.909Z,20.09
2022-09-30T20:50:12.834Z,20.22
2022-09-30T20:52:39.940Z,20.10
2022-09-30T20:55:08.179Z,19.95
2022-09-30T20:57:35.066Z,20.17
2022-09-30T21:00:02.310Z,20.30
2022-09-30T21:02:29.523Z,20.41
2022-09-30T21:05:01.125Z,20.28
2022-09-30T21:07:28.191Z,20.33
2022-09-30T21:09:55.101Z,20.56
2022-09-30T21:12:22.062Z,20.75
2022-09-30T21:14:49.191Z,20.64
2022-09-30T21:17:16.143Z,20.46
2022-09-30T21:19:43.786Z,20.32
2022-09-30T21:22:11.268Z,20.31
2022-09-30T21:24:38.276Z,20.43
2022-09-30T21:27:06.156Z,20.55
2022-09-30T21:29:33.393Z,20.72
2022-09-30T21:32:00.793Z,20.90
2022-09-30T21:34:28.190Z,21.04
2022-09-30T21:36:55.130Z,21.14
2022-09-30T21:39:21.990Z,21.22
2022-09-30T21:41:52.039Z,21.05
2022-09-30T21:44:18.957Z,20.96
2022-09-30T21:46:48.890Z,20.85
2022-09-30T21:49:21.402Z,19.78
2022-09-30T21:51:48.313Z,19.82
2022-09-30T21:54:15.515Z,19.87
2022-09-30T21:56:43.725Z,19.47
2022-09-30T21:59:11.329Z,19.77
2022-09-30T22:01:38.736Z,20.00
2022-09-30T22:04:06.799Z,20.15
2022-09-30T22:06:33.799Z,19.82
2022-09-30T22:09:01.714Z,19.93
2022-09-30T22:11:30.360Z,19.87
2022-09-30T22:13:59.224Z,19.87
2022-09-30T22:16:29.859Z,19.41
2022-09-30T22:19:02.395Z,19.37
2022-09-30T22:21:32.516Z,19.43
2022-09-30T22:24:01.634Z,19.48
2022-09-30T22:26:28.892Z,19.63
2022-09-30T22:28:58.343Z,19.69
2022-09-30T22:31:27.658Z,19.78
2022-09-30T22:34:17.305Z,19.94
2022-09-30T22:37:02.931Z,19.92
2022-09-30T22:39:30.702Z,19.70
2022-09-30T22:41:58.770Z,19.87
2022-09-30T22:44:32.583Z,19.86
2022-09-30T22:47:00.375Z,19.70
2022-09-30T22:49:28.706Z,19.67
2022-09-30T22:51:57.062Z,19.66
2022-09-30T22:54:26.369Z,19.64
2022-09-30T22:56:55.058Z,20.00
2022-09-30T22:59:23.637Z,19.70
2022-09-30T23:01:51.058Z,19.65
2022-09-30T23:04:18.845Z,19.58
2022-09-30T23:06:53.838Z,19.73
2022-09-30T23:09:20.974Z,19.68
2022-09-30T23:11:48.919Z,19.87
2022-09-30T23:14:16.511Z,19.83
2022-09-30T23:16:43.466Z,19.31
2022-09-30T23:19:10.364Z,19.29
2022-09-30T23:21:37.577Z,19.27
2022-09-30T23:24:04.887Z,19.30
2022-09-30T23:26:31.846Z,19.38
2022-09-30T23:29:01.024Z,19.44
2022-09-30T23:31:28.897Z,19.56
2022-09-30T23:33:58.116Z,19.64
2022-09-30T23:36:29.495Z,19.71
2022-09-30T23:39:04.412Z,19.65
2022-09-30T23:41:32.878Z,19.69
2022-09-30T23:44:01.277Z,19.48
2022-09-30T23:46:28.230Z,19.39
2022-09-30T23:48:55.169Z,19.60
2022-09-30T23:51:22.050Z,19.65
2022-09-30T23:53:49.773Z,19.87
2022-09-30T23:56:18.559Z,19.90
2022-09-30T23:58:46.519Z,19.89
